createdAt,value
2018-09-01T00:00:23.678Z,18.50
2018-09-01T00:02:51.787Z,18.45
2018-09-01T00:05:19.942Z,18.51
2018-09-01T00:07:48.052Z,18.49
2018-09-01T00:10:16.242Z,18.32
2018-09-01T00:12:44.498Z,18.38
2018-09-01T00:15:12.784Z,18.31
2018-09-01T00:17:40.911Z,18.38
2018-09-01T00:20:09.170Z,18.29
2018-09-01T00:22:37.480Z,18.25
2018-09-01T00:25:06.025Z,18.12
2018-09-01T00:27:34.391Z,18.18
2018-09-01T00:30:02.706Z,18.08
2018-09-01T00:32:30.815Z,18.05
2018-09-01T00:34:58.986Z,18.13
2018-09-01T00:37:32.515Z,17.97
2018-09-01T00:40:00.696Z,17.98
2018-09-01T00:42:28.803Z,18.03
2018-09-01T00:44:56.934Z,17.92
2018-09-01T00:47:25.053Z,17.99
2018-09-01T00:49:53.216Z,17.92
2018-09-01T00:52:21.504Z,17.91
2018-09-01T00:54:49.659Z,17.91
2018-09-01T00:57:17.831Z,17.89
2018-09-01T00:59:45.973Z,17.72
2018-09-01T01:02:14.255Z,17.81
2018-09-01T01:04:42.464Z,17.74
2018-09-01T01:07:12.443Z,17.75
2018-09-01T01:09:40.571Z,17.66
2018-09-01T01:12:08.682Z,17.67
2018-09-01T01:14:36.821Z,17.66
2018-09-01T01:17:04.999Z,17.57
2018-09-01T01:19:33.074Z,17.62
2018-09-01T01:22:01.164Z,17.49
2018-09-01T01:24:29.240Z,17.48
2018-09-01T01:26:57.339Z,17.58
2018-09-01T01:29:26.213Z,17.51
2018-09-01T01:31:54.449Z,17.55
2018-09-01T01:34:22.842Z,17.50
2018-09-01T01:36:50.942Z,17.41
2018-09-01T01:39:19.046Z,17.43
2018-09-01T01:41:47.222Z,17.30
2018-09-01T01:44:15.585Z,17.35
2018-09-01T01:46:43.778Z,17.32
2018-09-01T01:49:12.115Z,17.15
2018-09-01T01:51:40.392Z,17.25
2018-09-01T01:54:08.587Z,17.02
2018-09-01T01:56:36.694Z,17.12
2018-09-01T01:59:05.247Z,17.11
2018-09-01T02:01:33.361Z,17.01
2018-09-01T02:04:01.484Z,17.11
2018-09-01T02:06:29.681Z,17.09
2018-09-01T02:08:58.309Z,17.11
2018-09-01T02:11:26.395Z,17.05
2018-09-01T02:13:54.483Z,17.04
2018-09-01T02:16:22.601Z,16.95
2018-09-01T02:18:50.677Z,17.02
2018-09-01T02:21:19.090Z,16.89
2018-09-01T02:23:47.474Z,16.92
2018-09-01T02:26:15.692Z,16.96
2018-09-01T02:28:43.865Z,16.89
2018-09-01T02:31:11.962Z,16.92
2018-09-01T02:33:40.269Z,16.92
2018-09-01T02:36:08.455Z,16.85
2018-09-01T02:38:36.732Z,16.85
2018-09-01T02:41:05.017Z,16.90
2018-09-01T02:43:33.269Z,16.76
2018-09-01T02:46:01.547Z,16.75
2018-09-01T02:48:29.961Z,16.91
2018-09-01T02:50:58.521Z,16.91
2018-09-01T02:53:26.677Z,16.92
2018-09-01T02:55:54.752Z,16.84
2018-09-01T02:58:22.907Z,16.86
2018-09-01T03:00:56.334Z,16.84
2018-09-01T03:03:24.456Z,16.86
2018-09-01T03:05:52.615Z,16.90
2018-09-01T03:08:20.734Z,16.84
2018-09-01T03:10:48.866Z,16.75
2018-09-01T03:13:16.957Z,16.68
2018-09-01T03:15:45.191Z,16.58
2018-09-01T03:18:13.306Z,16.57
2018-09-01T03:20:41.480Z,16.46
2018-09-01T03:23:09.573Z,16.42
2018-09-01T03:25:37.714Z,16.40
2018-09-01T03:28:06.823Z,16.42
2018-09-01T03:30:34.997Z,16.50
2018-09-01T03:33:03.684Z,16.40
2018-09-01T03:35:31.816Z,16.31
2018-09-01T03:37:59.929Z,16.33
2018-09-01T03:40:28.376Z,16.27
2018-09-01T03:42:56.498Z,16.24
2018-09-01T03:45:24.594Z,16.23
2018-09-01T03:47:53.394Z,16.20
2018-09-01T03:50:21.463Z,16.21
2018-09-01T03:52:50.115Z,16.16
2018-09-01T03:55:18.411Z,16.05
2018-09-01T03:57:46.842Z,15.99
2018-09-01T04:00:14.975Z,15.97
2018-09-01T04:02:43.088Z,16.04
2018-09-01T04:05:11.230Z,15.94
2018-09-01T04:07:39.387Z,15.99
2018-09-01T04:10:08.556Z,15.95
2018-09-01T04:12:37.063Z,15.93
2018-09-01T04:15:05.878Z,15.98
2018-09-01T04:17:34.053Z,15.94
2018-09-01T04:20:02.250Z,15.90
2018-09-01T04:22:30.356Z,15.96
2018-09-01T04:24:58.518Z,15.89
2018-09-01T04:27:27.057Z,15.77
2018-09-01T04:29:55.119Z,15.76
2018-09-01T04:32:23.236Z,15.68
2018-09-01T04:34:52.092Z,15.73
2018-09-01T04:37:20.215Z,15.58
2018-09-01T04:39:48.482Z,15.70
2018-09-01T04:42:17.171Z,15.68
2018-09-01T04:44:45.655Z,15.70
2018-09-01T04:47:13.828Z,15.64
2018-09-01T04:49:41.888Z,15.70
2018-09-01T04:52:10.744Z,15.64
2018-09-01T04:54:38.994Z,15.65
2018-09-01T04:57:07.272Z,15.57
2018-09-01T04:59:35.953Z,15.54
2018-09-01T05:02:04.486Z,15.60
2018-09-01T05:04:32.603Z,15.48
2018-09-01T05:07:00.827Z,15.41
2018-09-01T05:09:29.127Z,15.45
2018-09-01T05:11:57.283Z,15.50
2018-09-01T05:14:25.353Z,15.48
2018-09-01T05:16:53.991Z,15.32
2018-09-01T05:19:22.363Z,15.43
2018-09-01T05:21:53.176Z,15.40
2018-09-01T05:24:21.296Z,15.30
2018-09-01T05:26:49.424Z,15.37
2018-09-01T05:29:17.699Z,15.23
2018-09-01T05:31:45.792Z,15.32
2018-09-01T05:34:15.060Z,15.34
2018-09-01T05:36:43.248Z,15.45
2018-09-01T05:39:11.272Z,15.28
2018-09-01T05:41:39.406Z,15.40
2018-09-01T05:44:07.509Z,15.38
2018-09-01T05:46:35.668Z,15.30
2018-09-01T05:49:03.789Z,15.39
2018-09-01T05:51:31.970Z,15.45
2018-09-01T05:54:00.058Z,15.44
2018-09-01T05:56:28.169Z,15.51
2018-09-01T05:58:56.294Z,15.56
2018-09-01T06:01:24.381Z,15.49
2018-09-01T06:03:52.552Z,15.62
2018-09-01T06:06:20.897Z,15.60
2018-09-01T06:08:48.987Z,15.73
2018-09-01T06:11:17.665Z,15.70
2018-09-01T06:13:45.767Z,15.64
2018-09-01T06:16:13.971Z,15.64
2018-09-01T06:18:42.041Z,15.68
2018-09-01T06:21:10.103Z,15.64
2018-09-01T06:23:38.187Z,15.61
2018-09-01T06:26:06.488Z,15.73
2018-09-01T06:28:37.828Z,15.63
2018-09-01T06:31:06.203Z,15.78
2018-09-01T06:33:34.271Z,15.82
2018-09-01T06:36:02.329Z,15.77
2018-09-01T06:38:30.652Z,15.76
2018-09-01T06:40:58.793Z,15.77
2018-09-01T06:43:26.895Z,15.78
2018-09-01T06:45:55.343Z,15.71
2018-09-01T06:48:23.520Z,15.93
2018-09-01T06:50:52.119Z,16.03
2018-09-01T06:53:20.252Z,16.04
2018-09-01T06:55:48.330Z,16.19
2018-09-01T06:58:16.415Z,16.24
2018-09-01T07:00:44.620Z,16.11
2018-09-01T07:03:12.717Z,16.21
2018-09-01T07:05:40.798Z,16.37
2018-09-01T07:08:09.002Z,16.46
2018-09-01T07:10:38.592Z,16.54
2018-09-01T07:13:06.788Z,16.65
2018-09-01T07:15:34.858Z,16.69
2018-09-01T07:18:03.019Z,16.58
2018-09-01T07:20:31.145Z,16.84
2018-09-01T07:22:59.303Z,16.96
2018-09-01T07:25:27.359Z,16.90
2018-09-01T07:27:55.473Z,17.04
2018-09-01T07:30:23.753Z,17.10
2018-09-01T07:32:51.894Z,17.15
2018-09-01T07:35:19.979Z,17.24
2018-09-01T07:37:48.205Z,17.23
2018-09-01T07:40:16.307Z,17.37
2018-09-01T07:42:44.448Z,17.40
2018-09-01T07:45:12.661Z,17.56
2018-09-01T07:47:40.834Z,17.60
2018-09-01T07:50:09.006Z,17.63
2018-09-01T07:52:38.751Z,17.72
2018-09-01T07:55:07.228Z,17.70
2018-09-01T07:57:35.400Z,17.82
2018-09-01T08:00:03.847Z,17.81
2018-09-01T08:02:32.183Z,17.92
2018-09-01T08:05:00.259Z,17.96
2018-09-01T08:07:28.666Z,17.95
2018-09-01T08:09:56.774Z,18.06
2018-09-01T08:12:24.995Z,18.13
2018-09-01T08:14:53.207Z,18.22
2018-09-01T08:17:21.381Z,18.16
2018-09-01T08:19:49.548Z,18.23
2018-09-01T08:22:17.778Z,18.23
2018-09-01T08:24:45.998Z,18.36
2018-09-01T08:27:14.055Z,18.39
2018-09-01T08:29:42.143Z,18.59
2018-09-01T08:32:10.280Z,18.67
2018-09-01T08:34:38.463Z,18.79
2018-09-01T08:37:06.711Z,18.87
2018-09-01T08:39:34.871Z,18.68
2018-09-01T08:42:03.015Z,18.75
2018-09-01T08:44:33.939Z,18.85
2018-09-01T08:47:02.123Z,19.10
2018-09-01T08:49:30.655Z,19.20
2018-09-01T08:51:58.828Z,19.29
2018-09-01T08:54:27.094Z,19.38
2018-09-01T08:56:55.188Z,19.30
2018-09-01T08:59:23.443Z,19.41
2018-09-01T09:01:51.609Z,19.42
2018-09-01T09:04:20.025Z,19.58
2018-09-01T09:06:48.494Z,19.66
2018-09-01T09:09:17.010Z,19.74
2018-09-01T09:11:45.123Z,19.83
2018-09-01T09:14:13.198Z,19.87
2018-09-01T09:16:41.455Z,19.91
2018-09-01T09:19:09.548Z,20.14
2018-09-01T09:21:38.516Z,20.14
2018-09-01T09:24:07.001Z,20.24
2018-09-01T09:26:35.907Z,20.30
2018-09-01T09:29:04.026Z,20.26
2018-09-01T09:31:32.116Z,20.48
2018-09-01T09:34:00.233Z,20.43
2018-09-01T09:36:28.526Z,20.52
2018-09-01T09:38:56.435Z,20.60
2018-09-01T09:41:24.490Z,20.71
2018-09-01T09:43:52.684Z,20.72
2018-09-01T09:46:20.829Z,21.02
2018-09-01T09:48:49.022Z,20.94
2018-09-01T09:51:17.171Z,21.09
2018-09-01T09:53:45.259Z,21.14
2018-09-01T09:56:14.012Z,20.95
2018-09-01T09:58:42.235Z,21.21
2018-09-01T10:01:15.882Z,21.49
2018-09-01T10:03:44.053Z,21.57
2018-09-01T10:06:12.223Z,21.73
2018-09-01T10:08:40.497Z,21.86
2018-09-01T10:11:08.811Z,22.07
2018-09-01T10:13:36.882Z,22.11
2018-09-01T10:16:05.032Z,22.10
2018-09-01T10:18:33.264Z,22.09
2018-09-01T10:21:01.512Z,22.16
2018-09-01T10:23:29.715Z,22.38
2018-09-01T10:25:57.843Z,22.26
2018-09-01T10:28:26.132Z,22.61
2018-09-01T10:30:54.252Z,22.83
2018-09-01T10:33:22.466Z,22.71
2018-09-01T10:35:51.123Z,23.04
2018-09-01T10:38:19.576Z,23.25
2018-09-01T10:40:47.779Z,23.25
2018-09-01T10:43:15.980Z,23.10
2018-09-01T10:45:44.324Z,23.25
2018-09-01T10:48:12.434Z,23.82
2018-09-01T10:50:40.622Z,23.88
2018-09-01T10:53:09.663Z,23.09
2018-09-01T10:55:38.767Z,23.28
2018-09-01T10:58:06.826Z,22.84
2018-09-01T11:00:34.933Z,22.98
2018-09-01T11:03:03.051Z,22.98
2018-09-01T11:05:31.186Z,22.89
2018-09-01T11:07:59.295Z,22.93
2018-09-01T11:10:27.344Z,23.77
2018-09-01T11:12:55.415Z,25.64
2018-09-01T11:15:23.520Z,24.75
2018-09-01T11:17:51.642Z,23.68
2018-09-01T11:20:19.805Z,23.26
2018-09-01T11:22:47.841Z,23.06
2018-09-01T11:25:16.474Z,23.09
2018-09-01T11:27:44.944Z,23.04
2018-09-01T11:30:13.028Z,22.83
2018-09-01T11:32:41.385Z,23.41
2018-09-01T11:35:09.911Z,25.74
2018-09-01T11:37:38.980Z,27.39
2018-09-01T11:40:07.929Z,27.93
2018-09-01T11:42:36.052Z,26.53
2018-09-01T11:45:04.099Z,25.27
2018-09-01T11:47:32.194Z,24.67
2018-09-01T11:50:00.342Z,25.71
2018-09-01T11:52:28.519Z,24.85
2018-09-01T11:54:56.674Z,27.61
2018-09-01T11:57:24.847Z,29.26
2018-09-01T11:59:53.028Z,30.54
2018-09-01T12:02:21.171Z,28.05
2018-09-01T12:04:49.224Z,28.16
2018-09-01T12:07:17.336Z,29.26
2018-09-01T12:09:45.707Z,27.72
2018-09-01T12:12:13.899Z,25.96
2018-09-01T12:14:42.103Z,26.85
2018-09-01T12:17:10.263Z,29.70
2018-09-01T12:19:39.275Z,31.92
2018-09-01T12:22:07.494Z,31.21
2018-09-01T12:24:35.587Z,31.67
2018-09-01T12:27:03.715Z,32.12
2018-09-01T12:29:31.809Z,32.71
2018-09-01T12:32:00.168Z,31.87
2018-09-01T12:34:28.624Z,31.17
2018-09-01T12:36:56.955Z,34.41
2018-09-01T12:39:25.292Z,36.00
2018-09-01T12:41:54.663Z,36.58
2018-09-01T12:44:25.071Z,36.90
2018-09-01T12:46:55.302Z,38.24
2018-09-01T12:49:24.003Z,34.55
2018-09-01T12:51:52.844Z,30.51
2018-09-01T12:54:22.036Z,29.73
2018-09-01T12:59:29.784Z,37.00
2018-09-01T13:01:57.896Z,38.03
2018-09-01T13:04:26.191Z,38.64
2018-09-01T13:06:54.333Z,39.23
2018-09-01T13:09:22.674Z,37.64
2018-09-01T13:11:51.262Z,38.32
2018-09-01T13:14:19.487Z,39.35
2018-09-01T13:16:47.660Z,35.98
2018-09-01T13:19:15.744Z,41.46
2018-09-01T13:21:43.922Z,38.78
2018-09-01T13:24:12.156Z,32.68
2018-09-01T13:26:40.303Z,34.17
2018-09-01T13:34:01.362Z,42.23
2018-09-01T13:36:29.707Z,43.00
2018-09-01T13:38:58.236Z,42.58
2018-09-01T13:41:26.744Z,39.23
2018-09-01T13:43:55.407Z,44.11
2018-09-01T13:46:24.171Z,44.88
2018-09-01T13:48:52.284Z,44.05
2018-09-01T13:51:21.542Z,35.73
2018-09-01T13:53:49.839Z,33.30
2018-09-01T13:56:18.023Z,32.57
2018-09-01T13:58:46.228Z,31.85
2018-09-01T14:01:14.525Z,39.55
2018-09-01T14:03:42.749Z,40.57
2018-09-01T14:06:11.203Z,44.42
2018-09-01T14:08:40.008Z,44.89
2018-09-01T14:11:08.592Z,45.53
2018-09-01T14:13:36.678Z,45.66
2018-09-01T14:16:04.774Z,45.99
2018-09-01T14:18:33.191Z,45.33
2018-09-01T14:21:01.422Z,46.29
2018-09-01T14:23:29.488Z,46.53
2018-09-01T14:25:57.736Z,45.80
2018-09-01T14:28:26.016Z,39.88
2018-09-01T14:30:54.268Z,34.76
2018-09-01T14:33:23.744Z,41.70
2018-09-01T14:35:52.251Z,46.49
2018-09-01T14:38:20.488Z,45.52
2018-09-01T14:40:48.670Z,45.85
2018-09-01T14:43:16.865Z,45.77
2018-09-01T14:45:46.169Z,46.49
2018-09-01T14:48:14.336Z,46.74
2018-09-01T14:50:42.500Z,47.23
2018-09-01T14:55:51.336Z,44.06
2018-09-01T14:58:19.518Z,45.94
2018-09-01T15:00:47.700Z,46.80
2018-09-01T15:03:15.952Z,47.68
2018-09-01T15:05:44.067Z,46.83
2018-09-01T15:08:12.248Z,46.39
2018-09-01T15:10:41.293Z,47.91
2018-09-01T15:13:09.945Z,46.27
2018-09-01T15:15:38.076Z,46.55
2018-09-01T15:18:06.207Z,46.16
2018-09-01T15:20:34.380Z,45.21
2018-09-01T15:23:02.718Z,45.57
2018-09-01T15:25:31.093Z,45.99
2018-09-01T15:27:59.187Z,46.67
2018-09-01T15:30:27.316Z,45.56
2018-09-01T15:32:55.703Z,46.26
2018-09-01T15:35:24.178Z,46.23
2018-09-01T15:37:52.428Z,46.32
2018-09-01T15:40:20.838Z,44.98
2018-09-01T15:42:49.169Z,44.96
2018-09-01T15:45:19.111Z,45.10
2018-09-01T15:47:47.546Z,45.02
2018-09-01T15:50:18.333Z,45.83
2018-09-01T15:52:46.817Z,45.35
2018-09-01T15:55:15.589Z,45.28
2018-09-01T15:57:44.070Z,44.26
2018-09-01T16:00:12.229Z,43.87
2018-09-01T16:02:40.428Z,43.21
2018-09-01T16:05:08.538Z,44.24
2018-09-01T16:07:36.743Z,43.82
2018-09-01T16:10:05.095Z,43.55
2018-09-01T16:12:33.350Z,41.81
2018-09-01T16:15:01.616Z,42.29
2018-09-01T16:17:29.746Z,42.72
2018-09-01T16:19:57.940Z,42.85
2018-09-01T16:22:27.187Z,42.92
2018-09-01T16:24:55.362Z,42.92
2018-09-01T16:27:25.339Z,42.14
2018-09-01T16:29:54.399Z,40.68
2018-09-01T16:32:22.571Z,40.89
2018-09-01T16:34:50.845Z,40.03
2018-09-01T16:37:19.231Z,40.37
2018-09-01T16:39:47.405Z,37.40
2018-09-01T16:42:15.665Z,34.13
2018-09-01T16:44:43.916Z,32.85
2018-09-01T16:47:12.133Z,31.71
2018-09-01T16:49:40.427Z,31.44
2018-09-01T16:52:08.628Z,31.85
2018-09-01T16:54:36.665Z,32.08
2018-09-01T16:57:04.856Z,31.63
2018-09-01T16:59:33.054Z,31.67
2018-09-01T17:02:01.115Z,31.14
2018-09-01T17:04:29.292Z,31.18
2018-09-01T17:06:57.432Z,30.69
2018-09-01T17:09:25.937Z,30.60
2018-09-01T17:11:54.619Z,30.18
2018-09-01T17:14:26.117Z,30.25
2018-09-01T17:16:54.204Z,29.63
2018-09-01T17:19:22.333Z,29.47
2018-09-01T17:21:53.732Z,29.06
2018-09-01T17:24:21.924Z,29.00
2018-09-01T17:26:50.059Z,29.06
2018-09-01T17:29:18.150Z,28.98
2018-09-01T17:31:46.252Z,28.20
2018-09-01T17:34:14.352Z,28.32
2018-09-01T17:36:42.487Z,28.31
2018-09-01T17:39:11.986Z,28.58
2018-09-01T17:41:41.097Z,28.28
2018-09-01T17:44:09.222Z,28.32
2018-09-01T17:46:37.279Z,28.44
2018-09-01T17:49:05.485Z,28.01
2018-09-01T17:51:33.776Z,27.86
2018-09-01T17:54:02.026Z,27.80
2018-09-01T17:56:30.280Z,27.84
2018-09-01T17:58:58.350Z,27.52
2018-09-01T18:01:33.333Z,27.52
2018-09-01T18:04:01.477Z,27.33
2018-09-01T18:06:30.907Z,27.16
2018-09-01T18:09:00.802Z,27.28
2018-09-01T18:11:29.438Z,27.06
2018-09-01T18:13:59.735Z,26.95
2018-09-01T18:16:30.917Z,26.66
2018-09-01T18:18:59.519Z,26.52
2018-09-01T18:21:27.695Z,26.66
2018-09-01T18:23:55.881Z,26.45
2018-09-01T18:26:23.997Z,26.18
2018-09-01T18:28:52.071Z,26.04
2018-09-01T18:31:20.220Z,26.17
2018-09-01T18:33:48.339Z,26.35
2018-09-01T18:36:16.864Z,26.43
2018-09-01T18:38:45.981Z,26.35
2018-09-01T18:41:14.233Z,26.28
2018-09-01T18:43:42.539Z,26.07
2018-09-01T18:46:11.135Z,25.93
2018-09-01T18:48:39.245Z,25.98
2018-09-01T18:51:07.457Z,26.04
2018-09-01T18:53:35.509Z,25.88
2018-09-01T18:56:03.575Z,25.78
2018-09-01T18:58:31.869Z,25.70
2018-09-01T19:01:00.055Z,25.59
2018-09-01T19:03:28.321Z,25.55
2018-09-01T19:05:56.449Z,25.51
2018-09-01T19:08:24.623Z,25.40
2018-09-01T19:10:52.726Z,25.45
2018-09-01T19:13:20.834Z,25.26
2018-09-01T19:15:48.992Z,25.29
2018-09-01T19:18:17.219Z,25.25
2018-09-01T19:20:45.307Z,25.23
2018-09-01T19:23:13.459Z,25.07
2018-09-01T19:25:41.582Z,25.05
2018-09-01T19:28:09.703Z,25.01
2018-09-01T19:30:37.818Z,24.81
2018-09-01T19:33:06.331Z,24.78
2018-09-01T19:35:34.497Z,24.65
2018-09-01T19:38:02.571Z,24.51
2018-09-01T19:40:31.236Z,24.54
2018-09-01T19:42:59.461Z,24.53
2018-09-01T19:45:27.968Z,24.51
2018-09-01T19:47:56.035Z,24.56
2018-09-01T19:50:24.226Z,24.23
2018-09-01T19:52:52.699Z,24.28
2018-09-01T19:55:21.440Z,24.21
2018-09-01T19:57:49.547Z,24.09
2018-09-01T20:00:17.771Z,23.84
2018-09-01T20:02:45.924Z,24.10
2018-09-01T20:05:14.110Z,23.79
2018-09-01T20:07:42.594Z,23.60
2018-09-01T20:10:11.421Z,23.96
2018-09-01T20:12:39.505Z,23.81
2018-09-01T20:15:07.699Z,23.66
2018-09-01T20:17:35.845Z,23.64
2018-09-01T20:20:04.239Z,23.65
2018-09-01T20:22:32.340Z,23.49
2018-09-01T20:25:00.405Z,23.55
2018-09-01T20:27:28.559Z,23.52
2018-09-01T20:29:56.663Z,23.42
2018-09-01T20:32:24.761Z,23.48
2018-09-01T20:34:52.931Z,23.21
2018-09-01T20:37:21.890Z,23.38
2018-09-01T20:39:50.629Z,23.11
2018-09-01T20:42:18.715Z,23.01
2018-09-01T20:44:47.567Z,23.04
2018-09-01T20:47:16.021Z,23.06
2018-09-01T20:49:44.108Z,22.96
2018-09-01T20:52:12.359Z,22.85
2018-09-01T20:54:41.686Z,22.80
2018-09-01T20:57:09.757Z,22.69
2018-09-01T20:59:37.949Z,22.66
2018-09-01T21:02:06.024Z,22.56
2018-09-01T21:04:34.379Z,22.52
2018-09-01T21:07:02.658Z,22.51
2018-09-01T21:09:31.051Z,22.42
2018-09-01T21:12:00.333Z,22.32
2018-09-01T21:14:29.019Z,22.01
2018-09-01T21:16:57.108Z,22.18
2018-09-01T21:19:25.201Z,21.83
2018-09-01T21:21:53.316Z,21.98
2018-09-01T21:24:21.868Z,22.07
2018-09-01T21:26:50.071Z,21.92
2018-09-01T21:29:18.347Z,21.97
2018-09-01T21:31:46.571Z,22.08
2018-09-01T21:34:21.397Z,21.90
2018-09-01T21:37:22.875Z,21.82
2018-09-01T21:39:51.358Z,21.86
2018-09-01T21:42:19.904Z,21.85
2018-09-01T21:44:48.401Z,21.78
2018-09-01T21:47:16.686Z,21.73
2018-09-01T21:49:45.006Z,21.42
2018-09-01T21:52:13.118Z,21.37
2018-09-01T21:54:42.009Z,21.52
2018-09-01T21:57:10.898Z,21.36
2018-09-01T21:59:39.016Z,21.22
2018-09-01T22:02:12.583Z,21.39
2018-09-01T22:09:35.253Z,21.07
2018-09-01T22:12:04.245Z,21.11
2018-09-01T22:14:33.474Z,21.10
2018-09-01T22:17:01.935Z,20.90
2018-09-01T22:19:30.383Z,20.91
2018-09-01T22:21:59.126Z,21.13
2018-09-01T22:24:29.123Z,21.15
2018-09-01T22:26:57.733Z,20.98
2018-09-01T22:29:26.700Z,21.19
2018-09-01T22:31:54.822Z,21.01
2018-09-01T22:34:23.142Z,20.93
2018-09-01T22:36:51.251Z,20.84
2018-09-01T22:39:20.545Z,20.76
2018-09-01T22:41:48.983Z,20.67
2018-09-01T22:44:17.384Z,20.84
2018-09-01T22:46:45.567Z,20.83
2018-09-01T22:49:13.765Z,20.78
2018-09-01T22:51:42.096Z,20.69
2018-09-01T22:54:10.462Z,20.63
2018-09-01T22:56:38.806Z,20.43
2018-09-01T22:59:07.492Z,20.58
2018-09-01T23:01:35.564Z,20.60
2018-09-01T23:04:04.198Z,20.37
2018-09-01T23:06:32.596Z,20.27
2018-09-01T23:09:00.906Z,20.28
2018-09-01T23:11:29.445Z,20.20
2018-09-01T23:13:57.921Z,20.08
2018-09-01T23:16:26.910Z,20.16
2018-09-01T23:18:55.500Z,19.98
2018-09-01T23:21:23.824Z,20.02
2018-09-01T23:23:52.203Z,20.05
2018-09-01T23:26:20.317Z,20.01
2018-09-01T23:28:48.441Z,19.80
2018-09-01T23:31:16.559Z,19.80
2018-09-01T23:33:44.748Z,19.80
2018-09-01T23:36:12.879Z,19.61
2018-09-01T23:38:40.995Z,19.78
2018-09-01T23:41:09.154Z,19.61
2018-09-01T23:43:37.291Z,19.65
2018-09-01T23:46:08.132Z,19.64
2018-09-01T23:48:36.257Z,19.58
2018-09-01T23:51:04.446Z,19.54
2018-09-01T23:53:32.607Z,19.59
2018-09-01T23:56:01.955Z,19.49
2018-09-01T23:58:30.083Z,19.37
